createdAt,value
2017-11-27T00:01:01.986Z,6.97
2017-11-27T00:02:04.452Z,5.18
2017-11-27T00:03:06.904Z,4.60
2017-11-27T00:04:09.371Z,5.50
2017-11-27T00:05:14.241Z,5.03
2017-11-27T00:06:16.799Z,5.20
2017-11-27T00:07:19.260Z,6.55
2017-11-27T00:08:21.731Z,5.30
2017-11-27T00:09:24.260Z,5.05
2017-11-27T00:10:26.733Z,4.12
2017-11-27T00:11:29.218Z,5.07
2017-11-27T00:12:31.691Z,4.53
2017-11-27T00:13:34.169Z,6.00
2017-11-27T00:14:36.659Z,4.85
2017-11-27T00:15:39.147Z,5.12
2017-11-27T00:16:41.627Z,4.97
2017-11-27T00:17:44.097Z,4.75
2017-11-27T00:18:46.575Z,5.47
2017-11-27T00:19:49.036Z,5.10
2017-11-27T00:20:51.512Z,4.47
2017-11-27T00:21:53.974Z,5.20
2017-11-27T00:22:56.450Z,4.85
2017-11-27T00:23:58.908Z,5.35
2017-11-27T00:25:01.365Z,5.80
2017-11-27T00:26:03.903Z,4.93
2017-11-27T00:27:06.366Z,4.45
2017-11-27T00:28:08.851Z,5.30
2017-11-27T00:29:11.318Z,4.18
2017-11-27T00:30:13.793Z,4.37
2017-11-27T00:31:16.284Z,4.53
2017-11-27T00:32:18.745Z,5.18
2017-11-27T00:33:21.228Z,4.30
2017-11-27T00:34:23.718Z,4.82
2017-11-27T00:35:26.184Z,5.68
2017-11-27T00:36:28.678Z,4.60
2017-11-27T00:37:31.150Z,5.35
2017-11-27T00:38:33.632Z,5.10
2017-11-27T00:39:36.104Z,4.87
2017-11-27T00:40:38.577Z,4.40
2017-11-27T00:41:41.065Z,4.43
2017-11-27T00:42:43.534Z,4.40
2017-11-27T00:43:45.997Z,5.22
2017-11-27T00:44:48.461Z,4.80
2017-11-27T00:45:50.926Z,3.75
2017-11-27T00:46:53.417Z,4.93
2017-11-27T00:47:55.895Z,5.70
2017-11-27T00:48:58.419Z,4.78
2017-11-27T00:50:00.868Z,3.00
2017-11-27T00:51:03.341Z,5.10
2017-11-27T00:52:05.828Z,4.50
2017-11-27T00:53:08.298Z,4.50
2017-11-27T00:54:10.755Z,4.87
2017-11-27T00:55:13.212Z,4.45
2017-11-27T00:56:27.451Z,4.78
2017-11-27T00:57:29.959Z,4.20
2017-11-27T00:58:32.518Z,3.62
2017-11-27T00:59:34.979Z,4.20
2017-11-27T01:00:37.428Z,4.00
2017-11-27T01:01:39.904Z,4.28
2017-11-27T01:02:42.401Z,4.03
2017-11-27T01:03:44.856Z,4.32
2017-11-27T01:04:47.322Z,4.45
2017-11-27T01:05:49.798Z,4.00
2017-11-27T01:06:52.270Z,4.55
2017-11-27T01:07:54.775Z,4.07
2017-11-27T01:08:57.250Z,3.42
2017-11-27T01:09:59.722Z,4.15
2017-11-27T01:11:02.190Z,3.25
2017-11-27T01:12:04.644Z,3.70
2017-11-27T01:13:07.129Z,4.28
2017-11-27T01:14:09.601Z,3.90
2017-11-27T01:15:12.054Z,3.05
2017-11-27T01:16:14.520Z,3.85
2017-11-27T01:17:16.981Z,4.10
2017-11-27T01:18:19.466Z,3.35
2017-11-27T01:19:21.939Z,3.40
2017-11-27T01:20:24.397Z,3.42
2017-11-27T01:21:26.869Z,3.70
2017-11-27T01:22:29.336Z,4.20
2017-11-27T01:23:31.830Z,4.15
2017-11-27T01:24:34.279Z,3.75
2017-11-27T01:25:36.736Z,3.87
2017-11-27T01:26:39.200Z,3.08
2017-11-27T01:27:41.668Z,2.92
2017-11-27T01:28:44.159Z,4.75
2017-11-27T01:29:46.607Z,3.50
2017-11-27T01:30:49.060Z,3.53
2017-11-27T01:31:51.536Z,3.70
2017-11-27T01:32:53.996Z,3.22
2017-11-27T01:33:56.486Z,3.58
2017-11-27T01:34:58.953Z,3.35
2017-11-27T01:36:01.419Z,3.40
2017-11-27T01:37:03.891Z,3.50
2017-11-27T01:38:06.367Z,2.90
2017-11-27T01:39:08.846Z,3.12
2017-11-27T01:40:11.331Z,3.25
2017-11-27T01:41:13.802Z,3.12
2017-11-27T01:42:16.270Z,3.05
2017-11-27T01:43:18.727Z,2.92
2017-11-27T01:44:21.204Z,2.42
2017-11-27T01:45:23.665Z,3.22
2017-11-27T01:46:26.132Z,4.03
2017-11-27T01:47:28.607Z,3.80
2017-11-27T01:48:31.064Z,3.62
2017-11-27T01:49:33.540Z,3.22
2017-11-27T01:50:36.019Z,4.12
2017-11-27T01:51:38.492Z,3.12
2017-11-27T01:52:40.967Z,2.75
2017-11-27T01:53:43.444Z,3.47
2017-11-27T01:54:45.920Z,3.00
2017-11-27T01:55:48.430Z,3.20
2017-11-27T01:56:50.885Z,3.35
2017-11-27T01:57:53.371Z,3.28
2017-11-27T01:58:55.833Z,2.75
2017-11-27T01:59:58.343Z,3.17
2017-11-27T02:01:00.793Z,3.00
2017-11-27T02:02:03.252Z,3.30
2017-11-27T02:03:05.718Z,3.45
2017-11-27T02:04:08.188Z,3.60
2017-11-27T02:05:10.672Z,2.85
2017-11-27T02:06:13.150Z,4.50
2017-11-27T02:07:14.913Z,3.30
2017-11-27T02:08:17.391Z,3.37
2017-11-27T02:09:19.866Z,3.70
2017-11-27T02:10:22.359Z,4.00
2017-11-27T02:11:24.834Z,3.50
2017-11-27T02:12:27.292Z,3.58
2017-11-27T02:13:29.754Z,4.15
2017-11-27T02:14:32.204Z,4.45
2017-11-27T02:15:34.680Z,3.45
2017-11-27T02:16:37.158Z,4.12
2017-11-27T02:17:39.616Z,4.55
2017-11-27T02:18:42.085Z,3.83
2017-11-27T02:19:44.554Z,4.65
2017-11-27T02:20:47.056Z,3.03
2017-11-27T02:21:49.512Z,3.45
2017-11-27T02:22:51.963Z,3.58
2017-11-27T02:23:54.420Z,3.47
2017-11-27T02:24:56.901Z,3.10
2017-11-27T02:25:59.381Z,3.08
2017-11-27T02:27:01.854Z,3.33
2017-11-27T02:28:04.325Z,3.10
2017-11-27T02:29:06.796Z,3.10
2017-11-27T02:30:09.252Z,4.12
2017-11-27T02:31:11.733Z,2.65
2017-11-27T02:32:14.215Z,3.37
2017-11-27T02:33:16.703Z,3.08
2017-11-27T02:34:19.972Z,3.92
2017-11-27T02:35:22.445Z,3.10
2017-11-27T02:36:24.923Z,3.22
2017-11-27T02:37:27.398Z,3.72
2017-11-27T02:38:29.848Z,4.65
2017-11-27T02:39:32.299Z,2.97
2017-11-27T02:40:34.754Z,3.50
2017-11-27T02:41:37.243Z,3.65
2017-11-27T02:42:39.714Z,3.50
2017-11-27T02:43:42.188Z,3.30
2017-11-27T02:44:44.643Z,3.40
2017-11-27T02:45:47.101Z,3.17
2017-11-27T02:46:49.598Z,3.33
2017-11-27T02:47:52.057Z,3.20
2017-11-27T02:48:54.516Z,3.35
2017-11-27T02:49:56.990Z,2.92
2017-11-27T02:50:59.461Z,3.60
2017-11-27T02:52:01.946Z,3.30
2017-11-27T02:53:04.418Z,3.05
2017-11-27T02:54:06.884Z,3.60
2017-11-27T02:55:09.347Z,3.42
2017-11-27T02:56:11.821Z,4.10
2017-11-27T02:57:14.330Z,3.67
2017-11-27T02:58:16.791Z,3.72
2017-11-27T02:59:19.244Z,3.67
2017-11-27T03:00:21.702Z,3.95
2017-11-27T03:01:24.169Z,3.80
2017-11-27T03:02:26.666Z,3.20
2017-11-27T03:03:29.138Z,3.28
2017-11-27T03:04:31.607Z,3.97
2017-11-27T03:05:34.060Z,3.62
2017-11-27T03:06:36.531Z,3.28
2017-11-27T03:07:39.026Z,2.90
2017-11-27T03:08:41.499Z,3.22
2017-11-27T03:09:43.955Z,2.65
2017-11-27T03:10:46.407Z,3.62
2017-11-27T03:11:48.873Z,3.17
2017-11-27T03:12:51.348Z,3.20
2017-11-27T03:13:53.816Z,3.83
2017-11-27T03:14:56.273Z,3.47
2017-11-27T03:15:58.746Z,3.60
2017-11-27T03:17:01.214Z,3.53
2017-11-27T03:18:03.710Z,2.95
2017-11-27T03:19:06.181Z,3.58
2017-11-27T03:20:08.649Z,2.50
2017-11-27T03:21:11.116Z,3.65
2017-11-27T03:22:13.567Z,3.30
2017-11-27T03:23:16.052Z,3.70
2017-11-27T03:24:18.535Z,3.10
2017-11-27T03:25:21.000Z,3.75
2017-11-27T03:26:23.451Z,2.80
2017-11-27T03:27:25.930Z,3.47
2017-11-27T03:28:28.444Z,3.15
2017-11-27T03:29:30.916Z,3.58
2017-11-27T03:30:33.415Z,2.75
2017-11-27T03:31:35.872Z,3.47
2017-11-27T03:32:38.328Z,2.87
2017-11-27T03:33:40.804Z,2.83
2017-11-27T03:34:43.255Z,3.92
2017-11-27T03:35:45.703Z,3.67
2017-11-27T03:36:48.164Z,3.30
2017-11-27T03:37:50.627Z,2.05
2017-11-27T03:38:53.218Z,2.47
2017-11-27T03:39:55.690Z,3.58
2017-11-27T03:40:58.145Z,2.45
2017-11-27T03:42:00.622Z,3.20
2017-11-27T03:43:03.098Z,2.42
2017-11-27T03:44:05.576Z,3.40
2017-11-27T03:45:08.038Z,3.83
2017-11-27T03:46:10.501Z,2.92
2017-11-27T03:47:12.993Z,2.70
2017-11-27T03:48:15.469Z,2.40
2017-11-27T03:49:17.965Z,2.58
2017-11-27T03:50:20.449Z,2.75
2017-11-27T03:51:22.929Z,2.80
2017-11-27T03:52:25.405Z,2.37
2017-11-27T03:53:27.878Z,3.05
2017-11-27T03:54:30.366Z,2.03
2017-11-27T03:55:32.819Z,3.17
2017-11-27T03:56:35.291Z,2.35
2017-11-27T03:57:37.757Z,2.45
2017-11-27T03:58:40.222Z,2.42
2017-11-27T03:59:42.714Z,2.40
2017-11-27T04:00:45.182Z,2.12
2017-11-27T04:01:47.637Z,2.25
2017-11-27T04:02:50.097Z,2.70
2017-11-27T04:03:52.562Z,2.17
2017-11-27T04:04:55.063Z,2.40
2017-11-27T04:05:57.528Z,2.47
2017-11-27T04:07:00.007Z,2.10
2017-11-27T04:08:02.474Z,1.85
2017-11-27T04:09:04.930Z,2.35
2017-11-27T04:10:07.422Z,2.50
2017-11-27T04:11:09.952Z,2.65
2017-11-27T04:12:12.417Z,2.55
2017-11-27T04:13:14.887Z,2.15
2017-11-27T04:14:17.339Z,2.15
2017-11-27T04:15:19.815Z,2.15
2017-11-27T04:16:22.263Z,2.10
2017-11-27T04:17:24.720Z,2.00
2017-11-27T04:18:27.215Z,2.58
2017-11-27T04:19:29.663Z,1.92
2017-11-27T04:20:32.135Z,2.70
2017-11-27T04:21:34.613Z,2.25
2017-11-27T04:22:37.176Z,2.65
2017-11-27T04:23:39.629Z,2.20
2017-11-27T04:24:42.092Z,2.80
2017-11-27T04:25:44.602Z,2.45
2017-11-27T04:26:47.070Z,3.08
2017-11-27T04:27:49.560Z,2.25
2017-11-27T04:28:52.033Z,2.47
2017-11-27T04:29:54.484Z,2.50
2017-11-27T04:30:56.968Z,2.28
2017-11-27T04:31:59.434Z,1.80
2017-11-27T04:33:01.897Z,2.70
2017-11-27T04:34:04.373Z,2.70
2017-11-27T04:35:06.837Z,2.25
2017-11-27T04:36:09.331Z,2.95
2017-11-27T04:37:11.802Z,2.60
2017-11-27T04:38:14.274Z,2.42
2017-11-27T04:39:16.754Z,3.15
2017-11-27T04:40:19.243Z,2.00
2017-11-27T04:41:21.727Z,2.30
2017-11-27T04:42:24.300Z,2.30
2017-11-27T04:43:26.777Z,2.60
2017-11-27T04:44:29.255Z,2.67
2017-11-27T04:45:31.707Z,2.72
2017-11-27T04:46:34.189Z,2.90
2017-11-27T04:47:36.662Z,1.95
2017-11-27T04:48:39.131Z,2.70
2017-11-27T04:49:41.588Z,2.67
2017-11-27T04:50:44.058Z,3.30
2017-11-27T04:51:46.546Z,2.33
2017-11-27T04:52:49.018Z,2.33
2017-11-27T04:53:51.502Z,2.45
2017-11-27T04:54:53.972Z,3.33
2017-11-27T04:55:56.424Z,2.58
2017-11-27T04:56:58.912Z,2.65
2017-11-27T04:58:01.363Z,2.53
2017-11-27T04:59:03.834Z,2.35
2017-11-27T05:00:06.307Z,2.55
2017-11-27T05:01:08.778Z,2.70
2017-11-27T05:02:11.252Z,2.70
2017-11-27T05:03:13.749Z,2.05
2017-11-27T05:04:16.220Z,2.33
2017-11-27T05:05:18.674Z,3.50
2017-11-27T05:06:21.142Z,2.25
2017-11-27T05:07:23.629Z,3.30
2017-11-27T05:08:26.098Z,2.62
2017-11-27T05:09:28.579Z,2.40
2017-11-27T05:10:31.049Z,2.58
2017-11-27T05:11:33.629Z,2.08
2017-11-27T05:12:36.122Z,3.12
2017-11-27T05:13:38.587Z,2.47
2017-11-27T05:14:41.057Z,2.40
2017-11-27T05:15:43.515Z,2.67
2017-11-27T05:16:45.968Z,2.05
2017-11-27T05:17:48.482Z,2.65
2017-11-27T05:18:50.938Z,3.20
2017-11-27T05:19:53.406Z,3.00
2017-11-27T05:20:55.856Z,3.03
2017-11-27T05:21:58.333Z,2.55
2017-11-27T05:23:00.809Z,2.28
2017-11-27T05:24:03.264Z,2.10
2017-11-27T05:25:05.738Z,3.45
2017-11-27T05:26:08.206Z,2.70
2017-11-27T05:27:10.670Z,2.75
2017-11-27T05:28:13.156Z,2.35
2017-11-27T05:29:15.625Z,2.67
2017-11-27T05:30:18.094Z,2.08
2017-11-27T05:31:20.547Z,2.70
2017-11-27T05:32:23.016Z,2.40
2017-11-27T05:33:25.485Z,2.45
2017-11-27T05:34:27.962Z,2.53
2017-11-27T05:35:30.412Z,2.58
2017-11-27T05:36:32.864Z,2.65
2017-11-27T05:37:35.337Z,2.70
2017-11-27T05:38:37.820Z,2.58
2017-11-27T05:39:40.280Z,2.53
2017-11-27T05:40:42.754Z,2.35
2017-11-27T05:41:45.313Z,3.58
2017-11-27T05:42:47.785Z,2.00
2017-11-27T05:43:50.281Z,2.10
2017-11-27T05:44:52.736Z,2.15
2017-11-27T05:45:55.219Z,2.15
2017-11-27T05:46:57.696Z,2.72
2017-11-27T05:48:00.146Z,2.70
2017-11-27T05:49:02.614Z,2.50
2017-11-27T05:50:05.086Z,2.70
2017-11-27T05:51:07.566Z,2.35
2017-11-27T05:52:10.034Z,2.78
2017-11-27T05:53:12.539Z,2.80
2017-11-27T05:54:15.026Z,2.40
2017-11-27T05:55:17.489Z,2.80
2017-11-27T05:56:19.960Z,2.40
2017-11-27T05:57:22.424Z,2.62
2017-11-27T05:58:24.971Z,2.80
2017-11-27T05:59:27.453Z,2.72
2017-11-27T06:00:29.928Z,2.62
2017-11-27T06:01:32.398Z,3.30
2017-11-27T06:02:34.889Z,3.20
2017-11-27T06:03:37.352Z,2.75
2017-11-27T06:04:39.838Z,3.47
2017-11-27T06:05:42.301Z,2.47
2017-11-27T06:06:44.765Z,2.60
2017-11-27T06:07:47.236Z,2.55
2017-11-27T06:08:49.696Z,2.78
2017-11-27T06:09:52.168Z,2.97
2017-11-27T06:10:54.738Z,2.62
2017-11-27T06:11:57.201Z,2.78
2017-11-27T06:12:59.667Z,3.08
2017-11-27T06:14:02.134Z,2.67
2017-11-27T06:15:04.673Z,2.85
2017-11-27T06:16:07.127Z,2.72
2017-11-27T06:17:09.581Z,3.15
2017-11-27T06:18:12.050Z,2.80
2017-11-27T06:19:14.522Z,2.33
2017-11-27T06:20:17.005Z,2.10
2017-11-27T06:21:19.520Z,2.83
2017-11-27T06:22:21.976Z,2.85
2017-11-27T06:23:24.463Z,1.80
2017-11-27T06:24:26.945Z,2.55
2017-11-27T06:25:29.438Z,2.75
2017-11-27T06:26:31.896Z,2.42
2017-11-27T06:27:34.362Z,2.87
2017-11-27T06:28:36.825Z,2.75
2017-11-27T06:29:39.290Z,2.78
2017-11-27T06:30:41.778Z,2.80
2017-11-27T06:31:44.228Z,2.00
2017-11-27T06:32:46.714Z,3.30
2017-11-27T06:33:49.172Z,2.50
2017-11-27T06:34:51.717Z,2.67
2017-11-27T06:35:54.209Z,3.28
2017-11-27T06:36:56.660Z,3.30
2017-11-27T06:37:59.125Z,3.00
2017-11-27T06:39:01.599Z,3.00
2017-11-27T06:40:04.092Z,3.80
2017-11-27T06:41:06.722Z,3.20
2017-11-27T06:42:09.194Z,2.65
2017-11-27T06:43:11.655Z,3.20
2017-11-27T06:44:14.125Z,3.42
2017-11-27T06:45:16.594Z,3.90
2017-11-27T06:46:19.120Z,3.25
2017-11-27T06:47:21.573Z,3.55
2017-11-27T06:48:24.024Z,3.47
2017-11-27T06:49:26.493Z,3.72
2017-11-27T06:50:28.985Z,3.03
2017-11-27T06:51:31.510Z,3.83
2017-11-27T06:52:33.982Z,3.55
2017-11-27T06:53:36.444Z,3.53
2017-11-27T06:54:38.945Z,3.97
2017-11-27T06:55:41.422Z,3.97
2017-11-27T06:56:43.887Z,3.67
2017-11-27T06:57:46.360Z,3.70
2017-11-27T06:58:48.816Z,3.37
2017-11-27T06:59:51.275Z,2.65
2017-11-27T07:00:53.760Z,4.68
2017-11-27T07:01:56.249Z,3.90
2017-11-27T07:02:58.718Z,3.25
2017-11-27T07:04:01.213Z,4.53
2017-11-27T07:05:03.685Z,3.90
2017-11-27T07:06:06.139Z,3.40
2017-11-27T07:07:08.668Z,3.28
2017-11-27T07:08:11.138Z,3.12
2017-11-27T07:09:13.610Z,3.62
2017-11-27T07:10:16.161Z,3.25
2017-11-27T07:11:18.615Z,3.55
2017-11-27T07:12:21.087Z,3.45
2017-11-27T07:13:23.558Z,3.75
2017-11-27T07:14:26.012Z,3.05
2017-11-27T07:15:28.472Z,3.28
2017-11-27T07:16:30.919Z,4.47
2017-11-27T07:17:33.397Z,3.78
2017-11-27T07:18:35.856Z,4.15
2017-11-27T07:19:38.311Z,3.30
2017-11-27T07:20:40.959Z,4.15
2017-11-27T07:21:43.419Z,4.12
2017-11-27T07:22:45.933Z,3.78
2017-11-27T07:23:48.388Z,4.43
2017-11-27T07:24:50.870Z,5.18
2017-11-27T07:25:53.407Z,4.32
2017-11-27T07:26:55.855Z,3.65
2017-11-27T07:27:58.332Z,3.95
2017-11-27T07:29:00.798Z,3.83
2017-11-27T07:30:03.251Z,3.75
2017-11-27T07:31:05.722Z,4.25
2017-11-27T07:32:08.185Z,4.62
2017-11-27T07:33:10.660Z,5.20
2017-11-27T07:34:13.129Z,4.47
2017-11-27T07:35:15.604Z,4.10
2017-11-27T07:36:18.070Z,4.40
2017-11-27T07:39:08.140Z,4.00
2017-11-27T07:40:10.614Z,4.80
2017-11-27T07:41:13.099Z,4.70
2017-11-27T07:42:15.562Z,4.28
2017-11-27T07:43:18.037Z,4.25
2017-11-27T07:44:20.536Z,4.43
2017-11-27T07:45:22.995Z,5.10
2017-11-27T07:46:25.474Z,4.30
2017-11-27T07:47:27.924Z,4.45
2017-11-27T07:48:30.401Z,4.97
2017-11-27T07:49:32.868Z,4.50
2017-11-27T07:50:35.325Z,4.95
2017-11-27T07:51:37.785Z,5.12
2017-11-27T07:52:40.260Z,5.57
2017-11-27T07:53:42.716Z,4.68
2017-11-27T07:54:45.211Z,5.87
2017-11-27T07:55:47.679Z,5.20
2017-11-27T07:56:50.163Z,4.75
2017-11-27T07:57:52.639Z,5.55
2017-11-27T07:58:55.105Z,4.45
2017-11-27T07:59:57.576Z,4.20
2017-11-27T08:01:00.023Z,4.85
2017-11-27T08:02:02.498Z,5.35
2017-11-27T08:03:04.970Z,5.28
2017-11-27T08:04:07.437Z,6.28
2017-11-27T08:05:09.912Z,5.78
2017-11-27T08:06:12.383Z,5.50
2017-11-27T08:07:14.863Z,6.30
2017-11-27T08:08:17.333Z,7.18
2017-11-27T08:09:19.785Z,5.85
2017-11-27T08:10:22.273Z,5.53
2017-11-27T08:11:24.734Z,5.65
2017-11-27T08:12:27.206Z,6.93
2017-11-27T08:13:29.686Z,6.82
2017-11-27T08:14:32.156Z,7.30
2017-11-27T08:15:34.654Z,6.05
2017-11-27T08:16:37.108Z,5.75
2017-11-27T08:17:39.587Z,5.82
2017-11-27T08:18:42.048Z,5.60
2017-11-27T08:19:44.518Z,6.55
2017-11-27T08:20:47.000Z,6.45
2017-11-27T08:21:49.449Z,6.68
2017-11-27T08:22:51.907Z,8.07
2017-11-27T08:23:54.378Z,7.00
2017-11-27T08:24:56.858Z,6.75
2017-11-27T08:25:59.381Z,5.50
2017-11-27T08:27:01.853Z,5.90
2017-11-27T08:28:04.323Z,7.60
2017-11-27T08:29:06.776Z,7.43
2017-11-27T08:30:09.252Z,7.43
2017-11-27T08:31:11.727Z,6.05
2017-11-27T08:32:14.193Z,7.35
2017-11-27T08:33:16.657Z,6.05
2017-11-27T08:34:19.138Z,6.18
2017-11-27T08:35:21.597Z,6.35
2017-11-27T08:36:24.096Z,6.15
2017-11-27T08:37:26.544Z,5.95
2017-11-27T08:38:29.041Z,5.60
2017-11-27T08:39:31.517Z,5.28
2017-11-27T08:40:33.972Z,6.45
2017-11-27T08:41:36.453Z,5.85
2017-11-27T08:42:38.931Z,5.57
2017-11-27T08:43:41.411Z,6.95
2017-11-27T08:44:43.885Z,7.30
2017-11-27T08:45:46.344Z,6.97
2017-11-27T08:46:48.838Z,6.60
2017-11-27T08:47:51.298Z,6.68
2017-11-27T08:48:53.751Z,7.10
2017-11-27T08:49:56.217Z,6.47
2017-11-27T08:50:58.674Z,6.70
2017-11-27T08:52:01.155Z,6.72
2017-11-27T08:53:03.626Z,6.15
2017-11-27T08:54:06.094Z,7.40
2017-11-27T08:55:08.566Z,6.37
2017-11-27T08:56:11.025Z,6.32
2017-11-27T08:57:13.504Z,7.20
2017-11-27T08:58:15.974Z,6.05
2017-11-27T08:59:18.438Z,6.65
2017-11-27T09:00:20.900Z,7.07
2017-11-27T09:01:23.357Z,6.20
2017-11-27T09:02:25.836Z,6.90
2017-11-27T09:03:28.377Z,6.28
2017-11-27T09:04:30.835Z,6.20
2017-11-27T09:05:33.305Z,6.10
2017-11-27T09:06:35.778Z,5.40
2017-11-27T09:07:38.266Z,6.75
2017-11-27T09:08:40.724Z,7.00
2017-11-27T09:09:43.180Z,6.60
2017-11-27T09:10:45.651Z,5.43
2017-11-27T09:11:48.122Z,6.68
2017-11-27T09:12:50.615Z,6.03
2017-11-27T09:13:53.100Z,6.28
2017-11-27T09:14:55.557Z,6.60
2017-11-27T09:15:58.010Z,6.30
2017-11-27T09:17:00.487Z,6.97
2017-11-27T09:18:02.989Z,5.97
2017-11-27T09:19:05.470Z,6.03
2017-11-27T09:20:07.947Z,4.80
2017-11-27T09:21:10.406Z,6.20
2017-11-27T09:22:12.928Z,6.12
2017-11-27T09:23:15.432Z,6.10
2017-11-27T09:24:17.902Z,5.82
2017-11-27T09:25:20.370Z,6.05
2017-11-27T09:26:22.847Z,5.68
2017-11-27T09:27:25.341Z,5.03
2017-11-27T09:28:27.840Z,5.68
2017-11-27T09:29:30.307Z,6.05
2017-11-27T09:30:32.779Z,5.28
2017-11-27T09:31:35.295Z,5.20
2017-11-27T09:32:37.757Z,5.15
2017-11-27T09:33:40.242Z,4.30
2017-11-27T09:34:42.710Z,4.93
2017-11-27T09:35:45.186Z,5.12
2017-11-27T09:36:47.673Z,4.70
2017-11-27T09:37:50.196Z,4.93
2017-11-27T09:38:53.194Z,4.00
2017-11-27T09:39:55.648Z,4.35
2017-11-27T09:40:58.116Z,3.85
2017-11-27T09:42:00.567Z,3.75
2017-11-27T09:43:03.031Z,3.25
2017-11-27T09:44:05.531Z,2.85
2017-11-27T09:45:08.007Z,3.40
2017-11-27T09:46:10.484Z,3.08
2017-11-27T09:47:12.971Z,2.25
2017-11-27T09:48:15.424Z,1.83
2017-11-27T09:49:17.914Z,2.65
2017-11-27T09:50:20.381Z,2.00
2017-11-27T09:51:22.888Z,2.37
2017-11-27T09:52:25.356Z,1.52
2017-11-27T09:53:27.826Z,2.05
2017-11-27T09:54:30.322Z,1.35
2017-11-27T09:55:32.776Z,1.70
2017-11-27T09:56:35.273Z,1.52
2017-11-27T09:57:37.728Z,1.60
2017-11-27T09:58:40.244Z,1.58
2017-11-27T09:59:42.697Z,1.77
2017-11-27T10:00:45.147Z,1.12
2017-11-27T10:01:47.623Z,1.35
2017-11-27T10:02:50.075Z,1.40
2017-11-27T10:03:52.587Z,1.33
2017-11-27T10:04:55.068Z,1.00
2017-11-27T10:05:57.548Z,1.15
2017-11-27T10:07:00.107Z,1.15
2017-11-27T10:08:02.581Z,1.45
2017-11-27T10:09:05.036Z,1.73
2017-11-27T10:10:07.537Z,1.00
2017-11-27T10:11:10.004Z,1.10
2017-11-27T10:12:12.473Z,0.85
2017-11-27T10:13:14.927Z,0.90
2017-11-27T10:14:17.429Z,1.12
2017-11-27T10:15:19.916Z,0.80
2017-11-27T10:16:22.381Z,1.25
2017-11-27T10:17:24.844Z,1.02
2017-11-27T10:18:27.452Z,0.95
2017-11-27T10:19:29.944Z,0.80
2017-11-27T10:20:32.434Z,1.40
2017-11-27T10:21:34.892Z,0.82
2017-11-27T10:22:37.414Z,0.60
2017-11-27T10:23:39.911Z,0.70
2017-11-27T10:24:42.365Z,0.68
2017-11-27T10:25:45.055Z,1.05
2017-11-27T10:26:47.516Z,0.60
2017-11-27T10:27:49.989Z,0.80
2017-11-27T10:28:52.454Z,0.80
2017-11-27T10:29:54.927Z,0.60
2017-11-27T10:30:57.414Z,1.25
2017-11-27T10:31:59.864Z,1.17
2017-11-27T10:33:02.330Z,0.80
2017-11-27T10:34:04.811Z,0.70
2017-11-27T10:35:07.320Z,0.73
2017-11-27T10:36:09.830Z,0.60
2017-11-27T10:37:12.296Z,1.00
2017-11-27T10:38:14.761Z,1.00
2017-11-27T10:39:17.909Z,0.70
2017-11-27T10:40:20.382Z,0.90
2017-11-27T10:41:22.860Z,0.80
2017-11-27T10:42:25.316Z,1.00
2017-11-27T10:43:27.781Z,0.80
2017-11-27T10:44:30.227Z,1.12
2017-11-27T10:45:32.693Z,0.93
2017-11-27T10:46:35.168Z,0.90
2017-11-27T10:47:37.638Z,0.90
2017-11-27T10:48:40.101Z,1.20
2017-11-27T10:49:42.569Z,1.00
2017-11-27T10:50:45.038Z,0.77
2017-11-27T10:51:47.535Z,0.70
2017-11-27T10:52:49.997Z,0.70
2017-11-27T10:53:52.498Z,0.93
2017-11-27T10:54:54.953Z,0.73
2017-11-27T10:55:57.415Z,1.00
2017-11-27T10:56:59.896Z,0.60
2017-11-27T10:58:02.362Z,0.80
2017-11-27T10:59:04.833Z,0.85
2017-11-27T11:00:07.285Z,0.88
2017-11-27T11:01:09.736Z,0.90
2017-11-27T11:02:12.204Z,0.98
2017-11-27T11:03:14.697Z,0.93
2017-11-27T11:04:17.155Z,0.80
2017-11-27T11:05:19.612Z,0.75
2017-11-27T11:06:22.077Z,0.85
2017-11-27T11:07:24.579Z,0.88
2017-11-27T11:08:27.057Z,1.62
2017-11-27T11:09:29.554Z,2.10
2017-11-27T11:10:32.042Z,10.32
2017-11-27T11:11:34.507Z,7.90
2017-11-27T11:12:37.036Z,2.40
2017-11-27T11:13:39.502Z,0.73
2017-11-27T11:14:41.949Z,3.28
2017-11-27T11:15:44.414Z,9.00
2017-11-27T11:16:46.870Z,6.60
2017-11-27T11:17:49.366Z,6.45
2017-11-27T11:18:51.813Z,5.32
2017-11-27T11:19:54.596Z,6.15
2017-11-27T11:20:57.051Z,4.78
2017-11-27T11:21:59.503Z,7.47
2017-11-27T11:23:02.044Z,5.03
2017-11-27T11:24:04.515Z,1.60
2017-11-27T11:25:06.976Z,2.12
2017-11-27T11:26:09.423Z,5.25
2017-11-27T11:27:11.886Z,3.42
2017-11-27T11:28:14.368Z,2.08
2017-11-27T11:29:16.825Z,1.58
2017-11-27T11:30:19.311Z,1.60
2017-11-27T11:31:21.780Z,1.50
2017-11-27T11:32:24.249Z,1.62
2017-11-27T11:33:26.738Z,3.10
2017-11-27T11:34:29.213Z,1.42
2017-11-27T11:35:31.682Z,3.20
2017-11-27T11:36:34.154Z,3.33
2017-11-27T11:37:36.604Z,0.90
2017-11-27T11:38:39.100Z,4.68
2017-11-27T11:39:41.552Z,0.90
2017-11-27T11:40:43.998Z,1.40
2017-11-27T11:41:46.452Z,1.90
2017-11-27T11:42:48.899Z,1.65
2017-11-27T11:43:51.393Z,1.62
2017-11-27T11:44:53.849Z,1.20
2017-11-27T11:45:56.328Z,2.40
2017-11-27T11:46:58.821Z,2.80
2017-11-27T11:48:01.286Z,0.80
2017-11-27T11:49:03.769Z,1.35
2017-11-27T11:50:06.241Z,2.53
2017-11-27T11:51:08.714Z,1.10
2017-11-27T11:52:11.177Z,1.60
2017-11-27T11:53:13.732Z,1.10
2017-11-27T11:54:16.390Z,2.87
2017-11-27T11:55:18.903Z,1.17
2017-11-27T11:56:21.410Z,0.80
2017-11-27T11:57:23.875Z,1.10
2017-11-27T11:58:26.335Z,1.25
2017-11-27T11:59:28.834Z,1.10
2017-11-27T12:00:31.285Z,1.37
2017-11-27T12:01:33.737Z,0.77
2017-11-27T12:02:36.234Z,1.10
2017-11-27T12:03:38.905Z,0.70
2017-11-27T12:04:41.463Z,0.70
2017-11-27T12:05:44.128Z,0.60
2017-11-27T12:06:46.584Z,1.27
2017-11-27T12:07:49.067Z,0.80
2017-11-27T12:08:51.520Z,1.15
2017-11-27T12:09:54.083Z,1.98
2017-11-27T12:10:56.536Z,0.80
2017-11-27T12:11:59.004Z,1.05
2017-11-27T12:13:01.470Z,1.00
2017-11-27T12:14:03.971Z,0.62
2017-11-27T12:15:06.466Z,0.90
2017-11-27T12:16:08.916Z,0.80
2017-11-27T12:17:11.479Z,0.77
2017-11-27T12:18:13.944Z,0.50
2017-11-27T12:19:16.458Z,0.57
2017-11-27T12:20:18.948Z,0.82
2017-11-27T12:21:21.417Z,1.10
2017-11-27T12:22:23.871Z,1.90
2017-11-27T12:23:26.320Z,1.90
2017-11-27T12:24:28.797Z,0.85
2017-11-27T12:25:31.285Z,0.60
2017-11-27T12:26:33.741Z,0.85
2017-11-27T12:27:36.226Z,0.95
2017-11-27T12:28:38.676Z,1.70
2017-11-27T12:29:41.133Z,0.80
2017-11-27T12:30:43.631Z,1.15
2017-11-27T12:31:46.098Z,0.95
2017-11-27T12:32:48.567Z,2.65
2017-11-27T12:33:51.011Z,1.30
2017-11-27T12:34:53.478Z,0.55
2017-11-27T12:35:55.972Z,2.15
2017-11-27T12:36:58.424Z,1.92
2017-11-27T12:38:00.876Z,1.00
2017-11-27T12:39:03.336Z,0.60
2017-11-27T12:40:05.804Z,0.90
2017-11-27T12:41:08.292Z,0.40
2017-11-27T12:42:10.763Z,0.40
2017-11-27T12:43:13.246Z,0.50
2017-11-27T12:44:15.701Z,1.23
2017-11-27T12:45:18.163Z,1.10
2017-11-27T12:46:20.661Z,0.60
2017-11-27T12:47:23.139Z,0.50
2017-11-27T12:48:25.613Z,0.40
2017-11-27T12:49:28.077Z,0.60
2017-11-27T12:50:30.555Z,0.52
2017-11-27T12:51:33.028Z,1.70
2017-11-27T12:52:35.485Z,0.40
2017-11-27T12:53:37.968Z,0.40
2017-11-27T12:54:40.443Z,0.50
2017-11-27T12:55:43.029Z,0.60
2017-11-27T12:56:45.517Z,0.90
2017-11-27T12:57:47.967Z,0.60
2017-11-27T12:58:50.425Z,0.60
2017-11-27T12:59:52.894Z,0.70
2017-11-27T13:00:55.362Z,0.40
2017-11-27T13:01:57.851Z,0.55
2017-11-27T13:03:00.324Z,1.02
2017-11-27T13:04:02.785Z,0.60
2017-11-27T13:05:05.240Z,0.77
2017-11-27T13:06:07.722Z,0.40
2017-11-27T13:07:10.371Z,0.52
2017-11-27T13:08:12.842Z,0.95
2017-11-27T13:09:15.391Z,0.50
2017-11-27T13:10:17.862Z,0.60
2017-11-27T13:11:20.325Z,0.50
2017-11-27T13:12:22.810Z,0.60
2017-11-27T13:13:25.275Z,0.90
2017-11-27T13:14:27.723Z,0.50
2017-11-27T13:15:30.181Z,0.60
2017-11-27T13:16:32.655Z,0.50
2017-11-27T13:17:35.140Z,0.68
2017-11-27T13:18:37.587Z,0.50
2017-11-27T13:19:40.048Z,1.10
2017-11-27T13:20:42.495Z,0.57
2017-11-27T13:21:44.943Z,1.37
2017-11-27T13:22:47.470Z,0.70
2017-11-27T13:23:50.005Z,1.10
2017-11-27T13:24:52.521Z,1.42
2017-11-27T13:25:55.102Z,0.60
2017-11-27T13:26:57.654Z,1.70
2017-11-27T13:28:00.256Z,0.77
2017-11-27T13:29:02.920Z,0.90
2017-11-27T13:30:05.429Z,1.00
2017-11-27T13:31:08.035Z,0.60
2017-11-27T13:32:10.587Z,0.50
2017-11-27T13:33:13.150Z,0.70
2017-11-27T13:34:15.794Z,1.00
2017-11-27T13:35:18.367Z,0.90
2017-11-27T13:36:20.915Z,0.60
2017-11-27T13:37:23.505Z,1.27
2017-11-27T13:38:26.080Z,0.82
2017-11-27T13:39:28.593Z,1.02
2017-11-27T13:40:31.132Z,0.60
2017-11-27T13:41:33.667Z,1.10
2017-11-27T13:42:36.176Z,0.80
2017-11-27T13:43:38.728Z,0.95
2017-11-27T13:44:41.319Z,1.33
2017-11-27T13:45:43.876Z,1.02
2017-11-27T13:46:46.448Z,1.10
2017-11-27T13:47:49.060Z,0.75
2017-11-27T13:48:51.674Z,0.73
2017-11-27T13:49:54.353Z,1.08
2017-11-27T13:50:56.907Z,1.52
2017-11-27T13:51:59.403Z,0.73
2017-11-27T13:53:02.112Z,1.00
2017-11-27T13:54:04.769Z,0.88